createdAt,value
2018-12-12T00:00:09.022Z,303.46
2018-12-12T00:01:08.934Z,304.23
2018-12-12T00:02:08.909Z,304.01
2018-12-12T00:04:26.346Z,301.20
2018-12-12T00:05:26.318Z,304.14
2018-12-12T00:06:26.306Z,303.82
2018-12-12T00:07:36.229Z,304.33
2018-12-12T00:08:26.318Z,304.36
2018-12-12T00:09:26.373Z,304.04
2018-12-12T00:10:26.341Z,303.73
2018-12-12T00:11:26.267Z,303.80
2018-12-12T00:12:26.515Z,303.96
2018-12-12T00:13:26.440Z,303.98
2018-12-12T00:14:26.357Z,304.48
2018-12-12T00:15:26.278Z,303.75
2018-12-12T00:16:26.259Z,304.19
2018-12-12T00:17:26.241Z,303.74
2018-12-12T00:18:26.237Z,303.80
2018-12-12T00:19:26.320Z,303.90
2018-12-12T00:20:26.460Z,303.64
2018-12-12T00:21:35.293Z,303.88
2018-12-12T00:22:35.310Z,305.04
2018-12-12T00:25:06.264Z,303.93
2018-12-12T00:26:06.207Z,303.96
2018-12-12T00:27:06.255Z,303.49
2018-12-12T00:28:06.189Z,303.69
2018-12-12T00:29:15.589Z,303.79
2018-12-12T00:30:06.207Z,304.13
2018-12-12T00:31:06.169Z,303.80
2018-12-12T00:32:06.195Z,304.27
2018-12-12T00:33:06.109Z,303.61
2018-12-12T00:34:06.133Z,303.80
2018-12-12T00:35:06.102Z,303.71
2018-12-12T00:36:06.125Z,303.76
2018-12-12T00:37:15.640Z,303.77
2018-12-12T00:38:06.051Z,303.41
2018-12-12T00:39:06.055Z,303.77
2018-12-12T00:40:06.043Z,304.02
2018-12-12T00:41:06.048Z,304.12
2018-12-12T00:42:06.059Z,303.41
2018-12-12T00:43:06.008Z,304.10
2018-12-12T00:44:05.991Z,304.37
2018-12-12T00:45:15.151Z,304.41
2018-12-12T00:46:05.990Z,303.79
2018-12-12T00:47:05.999Z,304.42
2018-12-12T00:48:05.984Z,303.86
2018-12-12T00:49:05.942Z,303.72
2018-12-12T00:50:05.985Z,304.03
2018-12-12T00:51:05.931Z,304.40
2018-12-12T00:52:05.950Z,304.09
2018-12-12T00:53:05.932Z,304.24
2018-12-12T00:54:05.895Z,304.36
2018-12-12T00:55:05.884Z,303.75
2018-12-12T00:56:05.882Z,303.88
2018-12-12T00:57:05.890Z,303.97
2018-12-12T00:58:05.867Z,304.05
2018-12-12T00:59:05.874Z,304.20
2018-12-12T01:00:05.889Z,304.29
2018-12-12T01:01:05.854Z,304.00
2018-12-12T01:02:05.817Z,303.93
2018-12-12T01:03:05.842Z,304.36
2018-12-12T01:04:05.774Z,304.00
2018-12-12T01:05:05.791Z,303.67
2018-12-12T01:06:05.761Z,304.16
2018-12-12T01:07:05.767Z,304.32
2018-12-12T01:08:05.755Z,304.61
2018-12-12T01:09:05.780Z,303.86
2018-12-12T01:10:05.732Z,304.14
2018-12-12T01:11:05.731Z,304.08
2018-12-12T01:12:05.707Z,304.48
2018-12-12T01:13:05.707Z,304.15
2018-12-12T01:14:05.713Z,304.69
2018-12-12T01:15:05.690Z,304.06
2018-12-12T01:16:05.674Z,304.15
2018-12-12T01:17:05.705Z,303.83
2018-12-12T01:18:05.669Z,304.49
2018-12-12T01:19:05.655Z,304.12
2018-12-12T01:20:05.666Z,304.33
2018-12-12T01:21:05.635Z,303.69
2018-12-12T01:22:05.635Z,303.90
2018-12-12T01:23:05.642Z,305.03
2018-12-12T01:24:05.576Z,303.42
2018-12-12T01:25:05.647Z,304.10
2018-12-12T01:26:05.584Z,304.44
2018-12-12T01:27:05.564Z,303.79
2018-12-12T01:28:05.560Z,303.92
2018-12-12T01:29:05.596Z,303.95
2018-12-12T01:30:05.567Z,304.11
2018-12-12T01:31:05.538Z,304.56
2018-12-12T01:32:05.534Z,304.37
2018-12-12T01:33:05.548Z,303.85
2018-12-12T01:34:05.506Z,304.28
2018-12-12T01:35:05.489Z,304.09
2018-12-12T01:36:05.526Z,303.74
2018-12-12T01:37:05.537Z,304.08
2018-12-12T01:38:05.457Z,304.10
2018-12-12T01:39:05.445Z,303.77
2018-12-12T01:40:05.448Z,304.27
2018-12-12T01:43:33.043Z,300.84
2018-12-12T01:44:32.927Z,304.13
2018-12-12T01:45:32.892Z,304.26
2018-12-12T01:46:32.865Z,304.13
2018-12-12T01:47:32.875Z,303.87
2018-12-12T01:48:32.863Z,304.04
2018-12-12T01:49:32.837Z,304.31
2018-12-12T01:50:32.844Z,304.57
2018-12-12T01:51:32.903Z,304.45
2018-12-12T01:52:43.276Z,304.31
2018-12-12T01:53:33.179Z,303.74
2018-12-12T01:54:32.800Z,304.08
2018-12-12T01:55:32.778Z,304.58
2018-12-12T01:56:32.754Z,304.13
2018-12-12T01:57:32.775Z,304.14
2018-12-12T01:58:32.748Z,304.19
2018-12-12T01:59:32.740Z,304.57
2018-12-12T02:00:32.733Z,304.68
2018-12-12T02:01:32.719Z,304.27
2018-12-12T02:02:32.717Z,303.95
2018-12-12T02:03:32.715Z,303.90
2018-12-12T02:04:32.681Z,303.99
2018-12-12T02:05:32.680Z,304.12
2018-12-12T02:06:32.689Z,304.72
2018-12-12T02:07:32.648Z,304.20
2018-12-12T02:08:32.658Z,304.65
2018-12-12T02:09:32.622Z,304.29
2018-12-12T02:10:32.627Z,304.05
2018-12-12T02:11:32.617Z,304.49
2018-12-12T02:12:32.596Z,304.52
2018-12-12T02:13:32.599Z,304.75
2018-12-12T02:14:32.574Z,305.11
2018-12-12T02:15:32.574Z,304.37
2018-12-12T02:16:32.562Z,304.55
2018-12-12T02:17:32.541Z,304.35
2018-12-12T02:18:32.558Z,305.66
2018-12-12T02:19:32.528Z,304.71
2018-12-12T02:20:32.515Z,304.47
2018-12-12T02:21:32.535Z,304.52
2018-12-12T02:22:32.497Z,304.45
2018-12-12T02:23:32.534Z,304.67
2018-12-12T02:24:32.470Z,304.46
2018-12-12T02:25:32.471Z,304.91
2018-12-12T02:26:32.457Z,304.02
2018-12-12T02:27:32.431Z,304.63
2018-12-12T02:28:32.422Z,305.74
2018-12-12T02:29:32.447Z,304.54
2018-12-12T02:30:32.409Z,305.12
2018-12-12T02:31:32.409Z,305.50
2018-12-12T02:32:32.381Z,306.00
2018-12-12T02:33:32.372Z,305.23
2018-12-12T02:34:32.457Z,305.48
2018-12-12T02:35:32.370Z,305.20
2018-12-12T02:36:32.352Z,304.98
2018-12-12T02:37:32.418Z,304.10
2018-12-12T02:38:32.331Z,304.56
2018-12-12T02:39:32.333Z,305.11
2018-12-12T02:40:32.320Z,305.00
2018-12-12T02:41:32.314Z,305.21
2018-12-12T02:42:32.294Z,304.21
2018-12-12T02:43:32.305Z,305.61
2018-12-12T02:44:32.278Z,305.71
2018-12-12T02:45:32.250Z,305.09
2018-12-12T02:46:32.262Z,304.81
2018-12-12T02:47:32.224Z,305.57
2018-12-12T02:48:32.245Z,304.72
2018-12-12T02:49:32.435Z,304.08
2018-12-12T02:50:32.199Z,304.99
2018-12-12T02:51:32.200Z,304.51
2018-12-12T02:52:32.229Z,304.11
2018-12-12T02:53:32.161Z,304.92
2018-12-12T02:54:32.168Z,304.15
2018-12-12T02:55:32.173Z,305.07
2018-12-12T02:56:32.138Z,304.86
2018-12-12T02:57:32.152Z,304.24
2018-12-12T02:58:32.133Z,304.51
2018-12-12T02:59:32.194Z,304.50
2018-12-12T03:00:32.106Z,304.48
2018-12-12T03:01:32.079Z,304.65
2018-12-12T03:02:32.111Z,305.08
2018-12-12T03:03:32.085Z,304.43
2018-12-12T03:04:32.063Z,305.16
2018-12-12T03:05:32.067Z,305.20
2018-12-12T03:06:32.046Z,304.36
2018-12-12T03:07:32.053Z,304.20
2018-12-12T03:08:32.040Z,304.58
2018-12-12T03:09:32.043Z,304.67
2018-12-12T03:10:31.984Z,304.72
2018-12-12T03:11:32.002Z,303.98
2018-12-12T03:12:31.998Z,304.23
2018-12-12T03:13:31.950Z,304.13
2018-12-12T03:14:31.955Z,304.44
2018-12-12T03:15:31.938Z,304.13
2018-12-12T03:16:31.950Z,303.58
2018-12-12T03:17:31.961Z,304.22
2018-12-12T03:18:31.983Z,304.74
2018-12-12T03:19:31.939Z,304.42
2018-12-12T03:20:31.900Z,304.48
2018-12-12T03:21:31.894Z,303.66
2018-12-12T03:22:31.908Z,304.49
2018-12-12T03:23:31.872Z,304.04
2018-12-12T03:24:31.887Z,304.66
2018-12-12T03:25:31.846Z,304.74
2018-12-12T03:26:31.829Z,304.71
2018-12-12T03:27:31.815Z,304.41
2018-12-12T03:28:31.846Z,303.89
2018-12-12T03:29:31.812Z,304.56
2018-12-12T03:30:31.815Z,304.36
2018-12-12T03:31:31.788Z,304.20
2018-12-12T03:32:31.754Z,304.49
2018-12-12T03:33:31.758Z,304.03
2018-12-12T03:34:31.766Z,304.05
2018-12-12T03:35:33.310Z,304.00
2018-12-12T03:36:31.750Z,304.16
2018-12-12T03:37:31.740Z,303.97
2018-12-12T03:38:31.715Z,304.25
2018-12-12T03:39:31.703Z,304.28
2018-12-12T03:40:31.687Z,304.91
2018-12-12T03:41:31.703Z,304.01
2018-12-12T03:42:31.675Z,304.45
2018-12-12T03:43:31.658Z,303.89
2018-12-12T03:44:31.647Z,303.70
2018-12-12T03:45:31.661Z,304.50
2018-12-12T03:46:31.630Z,304.16
2018-12-12T03:47:31.639Z,304.27
2018-12-12T03:48:31.632Z,303.75
2018-12-12T03:49:31.602Z,303.92
2018-12-12T03:50:31.566Z,303.84
2018-12-12T03:51:40.337Z,304.48
2018-12-12T03:52:40.854Z,304.56
2018-12-12T03:53:31.534Z,304.82
2018-12-12T03:54:31.570Z,304.40
2018-12-12T03:55:31.522Z,304.18
2018-12-12T03:56:31.509Z,303.91
2018-12-12T03:57:31.510Z,304.52
2018-12-12T03:58:31.501Z,304.10
2018-12-12T03:59:39.103Z,304.62
2018-12-12T04:00:31.496Z,304.40
2018-12-12T04:01:31.476Z,304.22
2018-12-12T04:02:31.462Z,304.28
2018-12-12T04:03:31.442Z,305.06
2018-12-12T04:04:31.440Z,304.69
2018-12-12T04:05:31.450Z,304.64
2018-12-12T04:06:31.415Z,304.03
2018-12-12T04:07:31.423Z,304.65
2018-12-12T04:08:31.412Z,304.60
2018-12-12T04:09:31.385Z,304.65
2018-12-12T04:10:31.381Z,304.95
2018-12-12T04:11:31.386Z,304.84
2018-12-12T04:12:31.381Z,304.41
2018-12-12T04:13:31.341Z,305.30
2018-12-12T04:14:31.342Z,305.08
2018-12-12T04:15:32.312Z,304.69
2018-12-12T04:16:31.303Z,305.49
2018-12-12T04:17:31.370Z,305.37
2018-12-12T04:18:31.293Z,304.91
2018-12-12T04:19:31.270Z,305.43
2018-12-12T04:20:31.282Z,305.07
2018-12-12T04:21:31.291Z,306.12
2018-12-12T04:22:31.256Z,305.41
2018-12-12T04:23:31.248Z,305.35
2018-12-12T04:24:31.291Z,305.39
2018-12-12T04:25:31.229Z,305.32
2018-12-12T04:26:31.222Z,305.10
2018-12-12T04:27:31.198Z,304.95
2018-12-12T04:28:31.199Z,305.09
2018-12-12T04:29:31.195Z,305.73
2018-12-12T04:30:31.176Z,306.27
2018-12-12T04:31:31.169Z,306.04
2018-12-12T04:32:31.160Z,305.61
2018-12-12T04:33:31.184Z,305.46
2018-12-12T04:34:31.138Z,305.60
2018-12-12T04:35:31.144Z,305.80
2018-12-12T04:36:31.097Z,304.99
2018-12-12T04:37:31.095Z,305.33
2018-12-12T04:38:31.145Z,304.97
2018-12-12T04:39:31.070Z,305.58
2018-12-12T04:40:31.061Z,304.76
2018-12-12T04:41:31.085Z,304.91
2018-12-12T04:42:31.229Z,304.91
2018-12-12T04:43:31.033Z,305.34
2018-12-12T04:44:31.020Z,304.94
2018-12-12T04:45:31.036Z,304.97
2018-12-12T04:46:31.013Z,305.16
2018-12-12T04:47:31.011Z,305.79
2018-12-12T04:48:31.037Z,305.38
2018-12-12T04:49:30.973Z,305.57
2018-12-12T04:50:30.959Z,305.59
2018-12-12T04:51:30.954Z,305.52
2018-12-12T04:52:30.954Z,305.98
2018-12-12T04:53:30.964Z,305.24
2018-12-12T04:54:30.931Z,305.48
2018-12-12T04:55:30.917Z,306.03
2018-12-12T04:56:30.899Z,305.18
2018-12-12T04:57:30.889Z,305.79
2018-12-12T04:58:30.883Z,305.82
2018-12-12T04:59:30.983Z,305.50
2018-12-12T05:00:30.901Z,306.26
2018-12-12T05:01:30.867Z,307.01
2018-12-12T05:02:30.857Z,306.43
2018-12-12T05:03:30.834Z,306.15
2018-12-12T05:04:30.817Z,306.79
2018-12-12T05:05:31.173Z,306.24
2018-12-12T05:06:30.791Z,306.14
2018-12-12T05:07:30.803Z,305.91
2018-12-12T05:08:30.792Z,306.17
2018-12-12T05:09:30.814Z,305.80
2018-12-12T05:10:30.767Z,306.56
2018-12-12T05:11:30.784Z,306.40
2018-12-12T05:12:30.744Z,306.44
2018-12-12T05:13:30.758Z,306.37
2018-12-12T05:14:30.777Z,306.40
2018-12-12T05:15:30.705Z,305.98
2018-12-12T05:16:30.711Z,306.10
2018-12-12T05:17:30.667Z,306.06
2018-12-12T05:18:30.681Z,306.29
2018-12-12T05:19:30.722Z,306.08
2018-12-12T05:20:30.685Z,306.04
2018-12-12T05:21:30.673Z,305.40
2018-12-12T05:22:30.622Z,306.14
2018-12-12T05:23:30.648Z,305.60
2018-12-12T05:24:30.607Z,305.22
2018-12-12T05:25:30.602Z,305.54
2018-12-12T05:26:30.644Z,305.17
2018-12-12T05:27:30.585Z,305.58
2018-12-12T05:28:30.614Z,304.78
2018-12-12T05:29:30.579Z,304.64
2018-12-12T05:30:30.556Z,306.02
2018-12-12T05:31:30.581Z,305.20
2018-12-12T05:32:30.581Z,305.27
2018-12-12T05:33:30.524Z,304.95
2018-12-12T05:34:30.527Z,305.14
2018-12-12T05:35:30.492Z,305.14
2018-12-12T05:36:30.515Z,305.14
2018-12-12T05:37:30.478Z,305.00
2018-12-12T05:38:30.493Z,304.62
2018-12-12T05:39:30.491Z,305.12
2018-12-12T05:40:30.426Z,305.15
2018-12-12T05:41:30.458Z,304.65
2018-12-12T05:42:30.417Z,304.58
2018-12-12T05:43:30.455Z,304.57
2018-12-12T05:44:30.417Z,305.12
2018-12-12T05:45:33.388Z,304.75
2018-12-12T05:46:30.370Z,305.02
2018-12-12T05:47:30.369Z,305.73
2018-12-12T05:48:30.366Z,305.56
2018-12-12T05:49:30.380Z,306.24
2018-12-12T05:50:30.378Z,305.59
2018-12-12T05:51:30.537Z,305.89
2018-12-12T05:52:30.343Z,306.07
2018-12-12T05:53:30.371Z,305.40
2018-12-12T05:54:30.353Z,305.92
2018-12-12T05:55:31.086Z,306.39
2018-12-12T05:56:30.487Z,306.43
2018-12-12T05:57:30.289Z,306.13
2018-12-12T05:58:30.538Z,305.62
2018-12-12T05:59:30.592Z,306.55
2018-12-12T06:00:30.475Z,305.55
2018-12-12T06:01:30.418Z,305.75
2018-12-12T06:02:30.411Z,306.39
2018-12-12T06:03:30.227Z,305.89
2018-12-12T06:04:30.198Z,305.90
2018-12-12T06:05:30.179Z,306.30
2018-12-12T06:06:30.202Z,305.98
2018-12-12T06:07:30.162Z,305.14
2018-12-12T06:08:30.152Z,305.93
2018-12-12T06:09:30.161Z,306.01
2018-12-12T06:10:30.139Z,305.57
2018-12-12T06:11:30.172Z,305.02
2018-12-12T06:12:30.125Z,305.07
2018-12-12T06:13:30.118Z,305.37
2018-12-12T06:14:30.095Z,305.38
2018-12-12T06:15:30.138Z,305.63
2018-12-12T06:16:30.117Z,305.84
2018-12-12T06:17:30.075Z,305.84
2018-12-12T06:18:30.117Z,305.05
2018-12-12T06:19:30.052Z,305.88
2018-12-12T06:20:30.071Z,305.77
2018-12-12T06:21:30.046Z,306.14
2018-12-12T06:22:30.033Z,306.36
2018-12-12T06:23:30.010Z,305.76
2018-12-12T06:24:30.002Z,306.70
2018-12-12T06:25:30.005Z,306.37
2018-12-12T06:26:29.970Z,306.58
2018-12-12T06:27:29.975Z,306.60
2018-12-12T06:28:29.984Z,306.74
2018-12-12T06:29:29.930Z,307.22
2018-12-12T06:30:29.926Z,306.35
2018-12-12T06:31:29.940Z,306.07
2018-12-12T06:32:30.007Z,306.04
2018-12-12T06:33:29.921Z,306.22
2018-12-12T06:34:29.885Z,306.78
2018-12-12T06:35:29.867Z,306.61
2018-12-12T06:36:29.873Z,306.73
2018-12-12T06:37:29.862Z,306.37
2018-12-12T06:38:29.878Z,305.91
2018-12-12T06:39:29.914Z,306.17
2018-12-12T06:40:29.821Z,305.95
2018-12-12T06:41:29.852Z,306.45
2018-12-12T06:42:29.828Z,306.12
2018-12-12T06:43:29.811Z,307.93
2018-12-12T06:44:29.820Z,307.15
2018-12-12T06:45:29.786Z,306.25
2018-12-12T06:46:29.797Z,306.96
2018-12-12T06:47:29.772Z,306.20
2018-12-12T06:48:29.747Z,306.40
2018-12-12T06:49:29.870Z,306.64
2018-12-12T06:50:29.802Z,307.00
2018-12-12T06:51:29.722Z,306.48
2018-12-12T06:52:29.691Z,306.24
2018-12-12T06:53:29.695Z,306.00
2018-12-12T06:54:29.691Z,305.93
2018-12-12T06:55:29.719Z,305.71
2018-12-12T06:56:29.663Z,306.56
2018-12-12T06:57:29.681Z,306.50
2018-12-12T06:58:29.646Z,306.09
2018-12-12T06:59:29.640Z,307.68
2018-12-12T07:00:29.624Z,306.84
2018-12-12T07:01:29.656Z,306.59
2018-12-12T07:02:29.601Z,306.05
2018-12-12T07:03:29.630Z,306.58
2018-12-12T07:04:29.605Z,306.21
2018-12-12T07:05:29.611Z,306.22
2018-12-12T07:06:29.660Z,306.03
2018-12-12T07:07:29.543Z,306.23
2018-12-12T07:08:29.563Z,306.76
2018-12-12T07:09:29.551Z,307.35
2018-12-12T07:10:29.518Z,306.50
2018-12-12T07:11:29.530Z,306.90
2018-12-12T07:12:29.506Z,306.73
2018-12-12T07:13:35.556Z,306.70
2018-12-12T07:14:30.479Z,306.80
2018-12-12T07:15:29.480Z,307.29
2018-12-12T07:16:29.459Z,306.71
2018-12-12T07:17:29.456Z,306.55
2018-12-12T07:18:29.435Z,307.23
2018-12-12T07:19:29.439Z,306.22
2018-12-12T07:20:29.410Z,306.88
2018-12-12T07:21:29.394Z,307.28
2018-12-12T07:22:29.430Z,306.98
2018-12-12T07:23:29.368Z,307.15
2018-12-12T07:24:39.968Z,306.81
2018-12-12T07:25:29.403Z,306.52
2018-12-12T07:26:29.363Z,306.68
2018-12-12T07:27:29.363Z,306.98
2018-12-12T07:28:29.333Z,307.24
2018-12-12T07:29:29.342Z,307.65
2018-12-12T07:30:29.356Z,306.90
2018-12-12T07:31:29.320Z,307.10
2018-12-12T07:32:29.289Z,306.54
2018-12-12T07:33:29.303Z,306.69
2018-12-12T07:34:29.286Z,306.30
2018-12-12T07:35:29.355Z,307.99
2018-12-12T07:36:29.275Z,307.31
2018-12-12T07:37:29.244Z,307.31
2018-12-12T07:38:29.269Z,307.50
2018-12-12T07:39:29.214Z,306.84
2018-12-12T07:40:29.225Z,306.54
2018-12-12T07:41:29.191Z,307.22
2018-12-12T07:42:29.185Z,308.04
2018-12-12T07:43:29.184Z,307.09
2018-12-12T07:44:29.195Z,307.63
2018-12-12T07:45:29.159Z,307.59
2018-12-12T07:46:29.151Z,307.85
2018-12-12T07:47:29.150Z,307.93
2018-12-12T07:48:29.181Z,307.31
2018-12-12T07:49:29.148Z,306.74
2018-12-12T07:50:29.135Z,307.38
2018-12-12T07:51:29.102Z,306.76
2018-12-12T07:52:29.112Z,307.48
2018-12-12T07:53:29.071Z,306.82
2018-12-12T07:54:29.117Z,306.61
2018-12-12T07:55:29.066Z,306.78
2018-12-12T07:56:29.031Z,306.96
2018-12-12T07:57:29.043Z,307.12
2018-12-12T07:58:29.122Z,306.88
2018-12-12T07:59:29.008Z,306.62
2018-12-12T08:00:29.065Z,306.83
2018-12-12T08:01:28.982Z,306.37
2018-12-12T08:02:28.996Z,306.84
2018-12-12T08:03:28.952Z,306.76
2018-12-12T08:04:28.979Z,307.05
2018-12-12T08:05:28.935Z,306.45
2018-12-12T08:06:28.998Z,306.76
2018-12-12T08:07:28.961Z,306.61
2018-12-12T08:08:28.919Z,306.51
2018-12-12T08:09:28.901Z,306.75
2018-12-12T08:10:28.919Z,307.47
2018-12-12T08:11:28.918Z,307.40
2018-12-12T08:12:28.881Z,307.04
2018-12-12T08:13:28.867Z,307.21
2018-12-12T08:14:28.894Z,306.92
2018-12-12T08:15:28.836Z,307.08
2018-12-12T08:16:28.903Z,307.28
2018-12-12T08:17:28.839Z,306.35
2018-12-12T08:18:28.812Z,306.08
2018-12-12T08:19:28.806Z,306.72
2018-12-12T08:20:28.788Z,306.61
2018-12-12T08:21:28.892Z,306.46
2018-12-12T08:22:28.773Z,306.38
2018-12-12T08:23:28.757Z,306.81
2018-12-12T08:24:28.756Z,307.03
2018-12-12T08:25:28.750Z,306.78
2018-12-12T08:26:28.725Z,306.68
2018-12-12T08:27:28.729Z,307.10
2018-12-12T08:28:28.751Z,306.79
2018-12-12T08:29:28.704Z,307.31
2018-12-12T08:30:28.713Z,307.44
2018-12-12T08:31:28.712Z,307.37
2018-12-12T08:32:28.718Z,307.29
2018-12-12T08:33:28.656Z,306.71
2018-12-12T08:34:28.632Z,307.56
2018-12-12T08:35:28.664Z,306.96
2018-12-12T08:36:28.651Z,306.52
2018-12-12T08:37:28.625Z,307.18
2018-12-12T08:38:28.604Z,306.44
2018-12-12T08:39:28.657Z,306.75
2018-12-12T08:40:28.586Z,307.08
2018-12-12T08:41:28.575Z,307.59
2018-12-12T08:42:28.573Z,306.95
2018-12-12T08:43:28.591Z,306.80
2018-12-12T08:44:28.573Z,306.71
2018-12-12T08:45:28.854Z,306.94
2018-12-12T08:46:28.522Z,306.76
2018-12-12T08:47:28.529Z,306.46
2018-12-12T08:48:28.506Z,306.24
2018-12-12T08:49:28.505Z,307.57
2018-12-12T08:50:28.477Z,307.03
2018-12-12T08:51:28.476Z,306.96
2018-12-12T08:52:28.451Z,306.32
2018-12-12T08:53:28.442Z,307.08
2018-12-12T08:54:28.616Z,307.29
2018-12-12T08:55:28.455Z,307.66
2018-12-12T08:56:28.431Z,307.17
2018-12-12T08:57:28.431Z,306.88
2018-12-12T08:58:28.402Z,307.36
2018-12-12T08:59:28.376Z,307.46
2018-12-12T09:00:28.392Z,306.87
2018-12-12T09:01:28.431Z,307.40
2018-12-12T09:02:28.358Z,307.48
2018-12-12T09:03:28.325Z,307.50
2018-12-12T09:04:28.341Z,307.19
2018-12-12T09:05:28.326Z,307.77
2018-12-12T09:06:28.330Z,306.93
2018-12-12T09:07:28.341Z,307.20
2018-12-12T09:08:28.316Z,307.71
2018-12-12T09:09:28.307Z,306.83
2018-12-12T09:10:28.284Z,307.69
2018-12-12T09:11:28.267Z,306.71
2018-12-12T09:12:28.257Z,307.05
2018-12-12T09:13:28.648Z,306.80
2018-12-12T09:14:28.232Z,307.22
2018-12-12T09:15:28.230Z,306.88
2018-12-12T09:16:28.222Z,307.21
2018-12-12T09:17:28.199Z,306.33
2018-12-12T09:18:28.197Z,306.89
2018-12-12T09:19:28.203Z,306.91
2018-12-12T09:20:28.149Z,306.87
2018-12-12T09:21:28.148Z,306.99
2018-12-12T09:22:28.138Z,306.43
2018-12-12T09:23:28.258Z,306.43
2018-12-12T09:24:28.123Z,307.57
2018-12-12T09:25:28.135Z,306.79
2018-12-12T09:26:28.097Z,306.86
2018-12-12T09:27:28.110Z,307.48
2018-12-12T09:28:28.081Z,306.88
2018-12-12T09:29:28.095Z,307.00
2018-12-12T09:30:28.083Z,306.84
2018-12-12T09:31:28.055Z,306.64
2018-12-12T09:32:28.054Z,307.36
2018-12-12T09:33:28.027Z,307.70
2018-12-12T09:34:28.020Z,306.83
2018-12-12T09:35:28.034Z,307.05
2018-12-12T09:36:28.018Z,307.33
2018-12-12T09:37:28.002Z,307.24
2018-12-12T09:38:27.969Z,307.07
2018-12-12T09:39:27.955Z,307.20
2018-12-12T09:40:27.967Z,306.33
2018-12-12T09:41:27.965Z,306.33
2018-12-12T09:42:27.946Z,306.60
2018-12-12T09:43:27.956Z,306.63
2018-12-12T09:44:27.929Z,307.29
2018-12-12T09:45:27.912Z,306.36
2018-12-12T09:46:27.942Z,306.81
2018-12-12T09:47:27.895Z,305.74
2018-12-12T09:48:27.869Z,305.80
2018-12-12T09:49:27.864Z,306.50
2018-12-12T09:50:27.859Z,306.22
2018-12-12T09:51:28.468Z,306.23
2018-12-12T09:52:28.449Z,305.92
2018-12-12T09:53:28.107Z,307.22
2018-12-12T09:54:28.854Z,306.52
2018-12-12T09:55:30.447Z,307.40
2018-12-12T09:56:28.503Z,306.86
2018-12-12T09:57:28.463Z,306.72
2018-12-12T09:58:28.628Z,307.15
2018-12-12T09:59:28.475Z,306.17
2018-12-12T10:00:28.426Z,306.33
2018-12-12T10:01:30.435Z,307.16
2018-12-12T10:02:28.975Z,306.41
2018-12-12T10:03:32.773Z,306.54
2018-12-12T10:04:28.500Z,305.39
2018-12-12T10:05:28.919Z,306.02
2018-12-12T10:06:27.714Z,306.14
2018-12-12T10:07:29.562Z,305.51
2018-12-12T10:08:30.436Z,305.71
2018-12-12T10:09:28.520Z,305.12
2018-12-12T10:10:28.856Z,305.17
2018-12-12T10:11:27.710Z,304.63
2018-12-12T10:12:27.668Z,304.73
2018-12-12T10:13:27.644Z,305.98
2018-12-12T10:14:27.655Z,304.62
2018-12-12T10:15:27.590Z,305.30
2018-12-12T10:16:27.686Z,304.99
2018-12-12T10:17:27.573Z,305.30
2018-12-12T10:18:27.560Z,305.68
2018-12-12T10:19:27.585Z,305.35
2018-12-12T10:20:27.528Z,305.42
2018-12-12T10:21:27.531Z,305.54
2018-12-12T10:22:27.552Z,305.51
2018-12-12T10:23:27.516Z,305.87
2018-12-12T10:24:27.529Z,304.85
2018-12-12T10:25:27.535Z,304.84
2018-12-12T10:26:27.471Z,305.56
2018-12-12T10:27:27.488Z,305.62
2018-12-12T10:28:27.470Z,304.97
2018-12-12T10:29:27.454Z,305.42
2018-12-12T10:30:27.491Z,305.17
2018-12-12T10:31:27.421Z,305.48
2018-12-12T10:32:27.417Z,305.12
2018-12-12T10:33:27.415Z,304.49
2018-12-12T10:34:27.397Z,304.92
2018-12-12T10:35:27.403Z,304.84
2018-12-12T10:36:27.427Z,305.48
2018-12-12T10:37:27.375Z,305.52
2018-12-12T10:38:27.359Z,305.39
2018-12-12T10:39:27.339Z,305.84
2018-12-12T10:40:27.332Z,305.80
2018-12-12T10:41:27.336Z,305.68
2018-12-12T10:42:27.355Z,305.83
2018-12-12T10:43:27.417Z,305.09
2018-12-12T10:44:27.297Z,305.08
2018-12-12T10:45:27.300Z,305.58
2018-12-12T10:46:27.311Z,306.07
2018-12-12T10:47:27.324Z,305.56
2018-12-12T10:48:27.263Z,304.89
2018-12-12T10:49:27.285Z,304.75
2018-12-12T10:50:36.463Z,305.09
2018-12-12T10:51:34.784Z,305.80
2018-12-12T10:52:36.512Z,305.16
2018-12-12T10:54:44.607Z,303.23
2018-12-12T10:57:02.097Z,303.50
2018-12-12T10:58:02.063Z,305.80
2018-12-12T10:59:02.075Z,305.87
2018-12-12T11:00:02.068Z,306.14
2018-12-12T11:01:02.055Z,306.03
2018-12-12T11:02:02.023Z,305.18
2018-12-12T11:03:02.039Z,304.60
2018-12-12T11:04:02.012Z,304.20
2018-12-12T11:05:02.019Z,304.60
2018-12-12T11:06:01.977Z,304.54
2018-12-12T11:07:01.988Z,304.56
2018-12-12T11:08:02.002Z,304.76
2018-12-12T11:09:01.981Z,305.20
2018-12-12T11:10:01.950Z,304.51
2018-12-12T11:11:01.944Z,304.97
2018-12-12T11:12:01.933Z,304.41
2018-12-12T11:13:01.940Z,305.35
2018-12-12T11:14:01.954Z,305.69
2018-12-12T11:15:01.912Z,304.63
2018-12-12T11:16:01.923Z,305.19
2018-12-12T11:17:01.887Z,305.13
2018-12-12T11:18:01.870Z,305.10
2018-12-12T11:19:02.052Z,305.10
2018-12-12T11:20:01.882Z,304.43
2018-12-12T11:21:01.831Z,304.80
2018-12-12T11:22:01.840Z,304.71
2018-12-12T11:23:01.827Z,305.88
2018-12-12T11:24:01.825Z,305.27
2018-12-12T11:25:01.813Z,305.40
2018-12-12T11:26:01.866Z,304.99
2018-12-12T11:27:01.768Z,304.96
2018-12-12T11:28:01.805Z,305.76
2018-12-12T11:29:01.779Z,306.08
2018-12-12T11:30:01.741Z,305.47
2018-12-12T11:31:01.749Z,304.89
2018-12-12T11:32:01.744Z,304.41
2018-12-12T11:33:01.695Z,304.80
2018-12-12T11:34:01.692Z,304.19
2018-12-12T11:35:01.802Z,304.67
2018-12-12T11:36:01.721Z,304.19
2018-12-12T11:37:01.688Z,303.88
2018-12-12T11:38:01.678Z,304.33
2018-12-12T11:39:01.625Z,304.66
2018-12-12T11:40:01.632Z,304.45
2018-12-12T11:41:01.660Z,303.81
2018-12-12T11:42:01.646Z,304.50
2018-12-12T11:43:01.608Z,304.26
2018-12-12T11:44:01.595Z,304.43
2018-12-12T11:45:01.611Z,304.28
2018-12-12T11:46:01.723Z,304.66
2018-12-12T11:47:01.566Z,304.72
2018-12-12T11:48:01.544Z,304.81
2018-12-12T11:49:01.535Z,304.31
2018-12-12T11:50:01.528Z,304.42
2018-12-12T11:51:02.399Z,304.53
2018-12-12T11:52:01.575Z,304.56
2018-12-12T11:53:01.501Z,304.42
2018-12-12T11:54:01.491Z,304.25
2018-12-12T11:55:01.482Z,304.84
2018-12-12T11:56:01.463Z,304.78
2018-12-12T11:57:01.444Z,305.29
2018-12-12T11:58:01.505Z,304.80
2018-12-12T11:59:01.434Z,304.79
2018-12-12T12:00:01.432Z,304.81
2018-12-12T12:01:01.427Z,304.17
2018-12-12T12:02:01.400Z,303.94
2018-12-12T12:03:01.393Z,304.75
2018-12-12T12:04:01.434Z,304.58
2018-12-12T12:05:01.352Z,304.90
2018-12-12T12:06:01.382Z,304.12
2018-12-12T12:07:01.363Z,303.93
2018-12-12T12:08:01.373Z,304.26
2018-12-12T12:09:01.315Z,304.83
2018-12-12T12:10:01.344Z,304.37
2018-12-12T12:11:01.340Z,304.55
2018-12-12T12:12:01.301Z,304.64
2018-12-12T12:13:01.287Z,304.61
2018-12-12T12:14:01.283Z,304.27
2018-12-12T12:15:01.255Z,305.07
2018-12-12T12:16:01.242Z,305.41
2018-12-12T12:17:01.255Z,304.59
2018-12-12T12:18:01.247Z,304.85
2018-12-12T12:19:01.225Z,304.93
2018-12-12T12:20:01.213Z,305.72
2018-12-12T12:21:01.217Z,305.35
2018-12-12T12:22:01.201Z,305.24
2018-12-12T12:23:01.172Z,304.94
2018-12-12T12:24:01.185Z,304.90
2018-12-12T12:25:01.151Z,305.14
2018-12-12T12:26:01.133Z,304.71
2018-12-12T12:27:01.146Z,305.01
2018-12-12T12:28:01.186Z,305.37
2018-12-12T12:29:01.132Z,304.80
2018-12-12T12:30:01.107Z,305.10
2018-12-12T12:31:01.090Z,305.40
2018-12-12T12:32:01.085Z,305.21
2018-12-12T12:33:01.065Z,305.42
2018-12-12T12:34:03.371Z,305.53
2018-12-12T12:35:01.058Z,304.30
2018-12-12T12:36:01.084Z,303.66